createdAt,value
2018-09-06T00:01:00.173Z,65.57
2018-09-06T00:03:28.285Z,65.27
2018-09-06T00:05:56.008Z,64.74
2018-09-06T00:08:24.084Z,64.93
2018-09-06T00:10:51.967Z,65.09
2018-09-06T00:13:19.781Z,65.00
2018-09-06T00:15:47.871Z,65.59
2018-09-06T00:18:15.588Z,65.72
2018-09-06T00:20:43.347Z,66.05
2018-09-06T00:23:11.200Z,65.94
2018-09-06T00:25:42.677Z,66.26
2018-09-06T00:28:10.431Z,66.06
2018-09-06T00:30:38.104Z,65.87
2018-09-06T00:33:05.843Z,66.63
2018-09-06T00:35:34.056Z,66.69
2018-09-06T00:38:01.907Z,65.86
2018-09-06T00:40:29.591Z,66.22
2018-09-06T00:42:57.431Z,66.58
2018-09-06T00:45:25.204Z,66.30
2018-09-06T00:47:52.898Z,65.98
2018-09-06T00:50:21.378Z,66.35
2018-09-06T00:52:50.349Z,66.88
2018-09-06T00:55:18.830Z,66.64
2018-09-06T00:57:46.655Z,66.86
2018-09-06T01:00:14.443Z,67.13
2018-09-06T01:02:42.594Z,66.67
2018-09-06T01:05:10.318Z,66.94
2018-09-06T01:07:38.035Z,66.04
2018-09-06T01:10:06.850Z,65.68
2018-09-06T01:12:34.730Z,66.11
2018-09-06T01:15:02.818Z,66.20
2018-09-06T01:17:30.535Z,66.55
2018-09-06T01:19:58.255Z,66.84
2018-09-06T01:22:26.037Z,66.53
2018-09-06T01:24:54.071Z,67.00
2018-09-06T01:27:21.754Z,67.04
2018-09-06T01:29:49.531Z,66.96
2018-09-06T01:32:20.738Z,66.98
2018-09-06T01:34:48.533Z,67.09
2018-09-06T01:37:17.500Z,66.78
2018-09-06T01:39:45.247Z,66.97
2018-09-06T01:42:13.032Z,66.84
2018-09-06T01:44:40.815Z,67.42
2018-09-06T01:47:08.538Z,67.01
2018-09-06T01:49:36.475Z,67.61
2018-09-06T01:52:04.194Z,67.49
2018-09-06T01:54:31.957Z,67.75
2018-09-06T01:56:59.715Z,68.10
2018-09-06T01:59:32.983Z,67.83
2018-09-06T02:02:00.773Z,68.02
2018-09-06T02:04:28.463Z,67.58
2018-09-06T02:06:56.203Z,68.03
2018-09-06T02:09:23.987Z,68.25
2018-09-06T02:11:51.657Z,68.26
2018-09-06T02:14:19.383Z,68.03
2018-09-06T02:16:47.219Z,68.35
2018-09-06T02:19:14.940Z,68.14
2018-09-06T02:21:42.735Z,68.60
2018-09-06T02:24:10.435Z,68.62
2018-09-06T02:26:38.195Z,68.91
2018-09-06T02:29:05.943Z,68.17
2018-09-06T02:31:33.695Z,68.77
2018-09-06T02:34:01.737Z,68.27
2018-09-06T02:36:29.520Z,67.97
2018-09-06T02:38:57.255Z,68.16
2018-09-06T02:41:25.172Z,68.16
2018-09-06T02:43:52.899Z,68.00
2018-09-06T02:46:20.665Z,68.09
2018-09-06T02:48:48.496Z,67.77
2018-09-06T02:51:17.475Z,67.68
2018-09-06T02:53:45.273Z,67.97
2018-09-06T02:56:13.593Z,67.80
2018-09-06T02:58:41.439Z,67.64
2018-09-06T03:01:09.490Z,67.51
2018-09-06T03:06:38.770Z,67.65
2018-09-06T03:09:07.547Z,67.73
2018-09-06T03:11:41.497Z,68.07
2018-09-06T03:14:09.659Z,67.53
2018-09-06T03:16:37.456Z,68.51
2018-09-06T03:19:05.173Z,68.52
2018-09-06T03:21:32.848Z,68.06
2018-09-06T03:24:01.000Z,68.14
2018-09-06T03:26:28.667Z,67.75
2018-09-06T03:28:56.812Z,68.19
2018-09-06T03:31:24.496Z,68.40
2018-09-06T03:33:52.281Z,68.53
2018-09-06T03:36:19.985Z,68.24
2018-09-06T03:38:47.700Z,68.99
2018-09-06T03:41:15.680Z,68.58
2018-09-06T03:43:43.432Z,68.65
2018-09-06T03:46:11.286Z,68.26
2018-09-06T03:48:39.068Z,68.61
2018-09-06T03:51:06.800Z,68.91
2018-09-06T03:53:34.970Z,69.42
2018-09-06T03:56:02.759Z,69.40
2018-09-06T03:58:30.568Z,68.90
2018-09-06T04:00:58.282Z,69.28
2018-09-06T04:03:26.071Z,68.94
2018-09-06T04:05:53.790Z,68.49
2018-09-06T04:08:21.619Z,68.18
2018-09-06T04:10:49.347Z,68.59
2018-09-06T04:13:17.060Z,68.22
2018-09-06T04:15:44.754Z,68.89
2018-09-06T04:18:12.745Z,68.87
2018-09-06T04:20:40.462Z,68.17
2018-09-06T04:23:08.134Z,68.71
2018-09-06T04:25:36.092Z,68.23
2018-09-06T04:28:03.877Z,68.54
2018-09-06T04:30:31.624Z,68.05
2018-09-06T04:32:59.351Z,68.74
2018-09-06T04:35:27.302Z,68.09
2018-09-06T04:37:55.125Z,67.97
2018-09-06T04:40:22.927Z,68.39
2018-09-06T04:42:54.277Z,69.02
2018-09-06T04:45:21.947Z,68.60
2018-09-06T04:47:49.813Z,68.79
2018-09-06T04:50:17.604Z,69.32
2018-09-06T04:52:45.325Z,68.26
2018-09-06T04:55:13.148Z,69.39
2018-09-06T04:57:40.863Z,68.63
2018-09-06T05:00:08.671Z,68.45
2018-09-06T05:02:36.364Z,68.45
2018-09-06T05:05:04.435Z,69.30
2018-09-06T05:07:32.203Z,68.88
2018-09-06T05:09:59.888Z,68.42
2018-09-06T05:12:28.043Z,68.61
2018-09-06T05:14:55.735Z,69.19
2018-09-06T05:17:23.464Z,69.36
2018-09-06T05:19:51.216Z,69.31
2018-09-06T05:22:19.207Z,68.28
2018-09-06T05:24:46.897Z,68.52
2018-09-06T05:27:14.746Z,68.22
2018-09-06T05:29:42.424Z,68.14
2018-09-06T05:32:10.280Z,68.22
2018-09-06T05:34:38.039Z,68.88
2018-09-06T05:37:05.975Z,68.75
2018-09-06T05:39:34.026Z,68.15
2018-09-06T05:42:08.436Z,68.10
2018-09-06T05:44:36.160Z,67.92
2018-09-06T05:47:03.942Z,68.21
2018-09-06T05:49:31.623Z,68.54
2018-09-06T05:51:59.472Z,67.87
2018-09-06T05:54:27.893Z,68.10
2018-09-06T05:56:55.839Z,68.23
2018-09-06T05:59:26.890Z,68.47
2018-09-06T06:01:54.608Z,68.23
2018-09-06T06:04:22.379Z,68.53
2018-09-06T06:06:50.195Z,68.07
2018-09-06T06:09:18.031Z,68.58
2018-09-06T06:11:45.815Z,68.96
2018-09-06T06:14:13.845Z,69.00
2018-09-06T06:16:41.553Z,68.13
2018-09-06T06:19:09.305Z,68.69
2018-09-06T06:21:37.730Z,68.31
2018-09-06T06:24:05.647Z,68.40
2018-09-06T06:26:33.384Z,68.06
2018-09-06T06:29:01.250Z,67.77
2018-09-06T06:31:29.036Z,67.86
2018-09-06T06:33:56.929Z,67.37
2018-09-06T06:36:24.633Z,66.82
2018-09-06T06:38:52.460Z,66.40
2018-09-06T06:41:20.194Z,65.24
2018-09-06T06:43:48.019Z,65.47
2018-09-06T06:46:15.800Z,64.89
2018-09-06T06:48:43.567Z,65.39
2018-09-06T06:51:11.432Z,65.54
2018-09-06T06:53:39.167Z,64.54
2018-09-06T06:56:06.962Z,64.73
2018-09-06T06:58:34.832Z,63.80
2018-09-06T07:01:02.776Z,63.85
2018-09-06T07:03:30.437Z,64.13
2018-09-06T07:05:58.511Z,63.87
2018-09-06T07:08:26.279Z,63.71
2018-09-06T07:10:53.927Z,63.29
2018-09-06T07:13:21.639Z,63.06
2018-09-06T07:15:49.292Z,63.21
2018-09-06T07:18:17.143Z,62.13
2018-09-06T07:20:44.788Z,60.32
2018-09-06T07:23:12.584Z,60.76
2018-09-06T07:25:40.275Z,59.36
2018-09-06T07:28:08.091Z,59.20
2018-09-06T07:30:35.948Z,58.85
2018-09-06T07:33:03.627Z,59.09
2018-09-06T07:35:31.559Z,58.23
2018-09-06T07:37:59.420Z,59.43
2018-09-06T07:40:27.230Z,60.08
2018-09-06T07:42:55.315Z,59.99
2018-09-06T07:45:23.026Z,59.22
2018-09-06T07:47:50.878Z,58.89
2018-09-06T07:50:18.980Z,59.14
2018-09-06T07:52:46.719Z,58.91
2018-09-06T07:55:14.499Z,59.74
2018-09-06T07:57:42.292Z,60.21
2018-09-06T08:00:10.399Z,59.11
2018-09-06T08:02:38.124Z,59.19
2018-09-06T08:05:05.947Z,58.98
2018-09-06T08:10:01.508Z,58.68
2018-09-06T08:12:29.298Z,57.88
2018-09-06T08:14:57.191Z,56.97
2018-09-06T08:17:24.926Z,56.24
2018-09-06T08:19:52.690Z,54.94
2018-09-06T08:22:20.548Z,54.89
2018-09-06T08:24:48.284Z,55.74
2018-09-06T08:27:16.249Z,55.65
2018-09-06T08:29:44.099Z,53.98
2018-09-06T08:32:12.042Z,54.07
2018-09-06T08:34:39.764Z,54.47
2018-09-06T08:37:07.484Z,54.19
2018-09-06T08:39:35.240Z,54.39
2018-09-06T08:42:03.046Z,53.35
2018-09-06T08:44:30.831Z,52.90
2018-09-06T08:46:58.688Z,50.95
2018-09-06T08:49:26.411Z,51.66
2018-09-06T08:51:54.264Z,50.80
2018-09-06T08:54:21.967Z,51.74
2018-09-06T08:56:49.655Z,51.11
2018-09-06T08:59:17.414Z,51.12
2018-09-06T09:01:45.164Z,50.53
2018-09-06T09:04:12.914Z,51.43
2018-09-06T09:06:40.756Z,51.61
2018-09-06T09:09:15.200Z,49.86
2018-09-06T09:11:42.986Z,49.36
2018-09-06T09:14:10.771Z,46.98
2018-09-06T09:16:38.570Z,45.67
2018-09-06T09:19:06.984Z,48.08
2018-09-06T09:21:34.848Z,46.96
2018-09-06T09:24:03.996Z,48.58
2018-09-06T09:26:32.007Z,46.27
2018-09-06T09:28:59.776Z,46.14
2018-09-06T09:31:27.516Z,46.98
2018-09-06T09:33:55.759Z,47.37
2018-09-06T09:36:23.567Z,45.59
2018-09-06T09:38:51.343Z,44.52
2018-09-06T09:41:19.516Z,43.00
2018-09-06T09:43:47.271Z,42.80
2018-09-06T09:48:42.291Z,42.84
2018-09-06T09:51:10.040Z,41.84
2018-09-06T09:53:38.128Z,42.71
2018-09-06T09:56:05.995Z,41.27
2018-09-06T09:58:33.846Z,41.03
2018-09-06T10:01:01.791Z,40.76
2018-09-06T10:03:35.290Z,39.60
2018-09-06T10:06:08.797Z,40.22
2018-09-06T10:08:42.238Z,39.69
2018-09-06T10:11:10.115Z,40.03
2018-09-06T10:13:37.855Z,39.44
2018-09-06T10:16:05.770Z,40.97
2018-09-06T10:18:33.600Z,40.13
2018-09-06T10:21:01.387Z,39.11
2018-09-06T10:23:29.221Z,38.42
2018-09-06T10:25:57.102Z,37.27
2018-09-06T10:28:24.895Z,38.58
2018-09-06T10:30:52.635Z,38.89
2018-09-06T10:33:20.349Z,39.73
2018-09-06T10:35:48.207Z,39.17
2018-09-06T10:38:16.247Z,39.09
2018-09-06T10:40:44.029Z,38.51
2018-09-06T10:43:11.816Z,39.20
2018-09-06T10:45:39.583Z,37.97
2018-09-06T10:48:07.305Z,37.49
2018-09-06T10:50:35.080Z,36.48
2018-09-06T10:53:02.800Z,38.08
2018-09-06T10:55:30.677Z,38.68
2018-09-06T10:57:58.503Z,37.61
2018-09-06T11:00:27.931Z,36.04
2018-09-06T11:02:56.543Z,36.84
2018-09-06T11:05:24.235Z,36.74
2018-09-06T11:07:52.052Z,35.59
2018-09-06T11:10:20.070Z,35.40
2018-09-06T11:12:47.891Z,35.53
2018-09-06T11:15:15.632Z,36.03
2018-09-06T11:17:44.005Z,37.35
2018-09-06T11:20:11.814Z,36.44
2018-09-06T11:22:39.784Z,37.76
2018-09-06T11:25:08.124Z,36.50
2018-09-06T11:27:39.389Z,36.33
2018-09-06T11:30:07.275Z,36.35
2018-09-06T11:32:34.972Z,36.72
2018-09-06T11:35:02.868Z,35.62
2018-09-06T11:37:30.654Z,36.74
2018-09-06T11:39:58.874Z,36.09
2018-09-06T11:42:26.535Z,36.69
2018-09-06T11:44:54.255Z,37.24
2018-09-06T11:47:22.134Z,38.91
2018-09-06T11:49:49.762Z,38.24
2018-09-06T11:52:17.741Z,36.74
2018-09-06T11:54:45.504Z,37.34
2018-09-06T11:57:13.339Z,37.18
2018-09-06T11:59:41.263Z,37.19
2018-09-06T12:02:09.084Z,37.86
2018-09-06T12:04:37.176Z,38.04
2018-09-06T12:07:05.194Z,38.68
2018-09-06T12:09:32.879Z,37.04
2018-09-06T12:12:00.872Z,36.08
2018-09-06T12:14:28.603Z,36.07
2018-09-06T12:16:56.339Z,36.06
2018-09-06T12:19:24.046Z,35.63
2018-09-06T12:21:51.874Z,35.72
2018-09-06T12:24:19.648Z,35.11
2018-09-06T12:26:47.466Z,36.07
2018-09-06T12:29:15.239Z,35.87
2018-09-06T12:31:43.272Z,36.12
2018-09-06T12:34:11.978Z,35.95
2018-09-06T12:36:42.068Z,36.39
2018-09-06T12:41:49.227Z,35.10
2018-09-06T12:44:20.288Z,35.14
2018-09-06T12:46:48.199Z,37.39
2018-09-06T12:49:15.924Z,37.54
2018-09-06T12:51:49.990Z,37.87
2018-09-06T12:54:18.308Z,37.89
2018-09-06T12:56:46.036Z,36.78
2018-09-06T12:59:13.736Z,37.42
2018-09-06T13:01:41.514Z,36.45
2018-09-06T13:04:09.354Z,37.54
2018-09-06T13:06:37.079Z,37.86
2018-09-06T13:09:05.995Z,37.26
2018-09-06T13:11:34.089Z,36.92
2018-09-06T13:14:01.852Z,36.97
2018-09-06T13:16:29.580Z,37.75
2018-09-06T13:18:57.599Z,38.90
2018-09-06T13:21:25.296Z,38.76
2018-09-06T13:23:52.964Z,38.29
2018-09-06T13:26:20.689Z,38.75
2018-09-06T13:28:48.511Z,40.47
2018-09-06T13:31:16.341Z,39.69
2018-09-06T13:33:44.787Z,39.31
2018-09-06T13:36:12.619Z,39.91
2018-09-06T13:38:40.303Z,40.00
2018-09-06T13:41:08.196Z,37.93
2018-09-06T13:43:35.918Z,38.25
2018-09-06T13:46:03.666Z,37.42
2018-09-06T13:48:31.318Z,38.27
2018-09-06T13:50:59.019Z,39.42
2018-09-06T13:53:26.711Z,39.53
2018-09-06T13:55:54.433Z,38.77
2018-09-06T13:58:22.183Z,40.37
2018-09-06T14:00:50.243Z,41.14
2018-09-06T14:03:18.119Z,40.97
2018-09-06T14:05:46.601Z,40.85
2018-09-06T14:08:14.363Z,40.47
2018-09-06T14:10:42.079Z,41.25
2018-09-06T14:13:10.013Z,41.15
2018-09-06T14:15:37.691Z,42.10
2018-09-06T14:18:05.675Z,42.41
2018-09-06T14:20:33.423Z,43.53
2018-09-06T14:23:01.235Z,45.26
2018-09-06T14:25:32.952Z,46.60
2018-09-06T14:28:01.767Z,47.95
2018-09-06T14:30:29.495Z,48.31
2018-09-06T14:32:57.212Z,48.55
2018-09-06T14:35:24.931Z,49.44
2018-09-06T14:37:52.714Z,51.30
2018-09-06T14:40:20.442Z,53.46
2018-09-06T14:42:49.272Z,54.98
2018-09-06T14:45:17.005Z,56.92
2018-09-06T14:47:45.023Z,56.57
2018-09-06T14:50:12.779Z,58.38
2018-09-06T14:52:40.452Z,58.84
2018-09-06T14:55:08.174Z,59.95
2018-09-06T14:57:36.415Z,59.84
2018-09-06T15:00:04.337Z,60.61
2018-09-06T15:02:32.019Z,60.15
2018-09-06T15:04:59.743Z,61.17
2018-09-06T15:07:27.523Z,61.22
2018-09-06T15:09:55.202Z,62.12
2018-09-06T15:12:22.951Z,60.88
2018-09-06T15:14:50.711Z,62.20
2018-09-06T15:17:18.466Z,60.07
2018-09-06T15:19:46.168Z,61.80
2018-09-06T15:22:13.960Z,60.43
2018-09-06T15:24:41.952Z,61.92
2018-09-06T15:27:09.677Z,62.77
2018-09-06T15:29:37.396Z,61.54
2018-09-06T15:32:10.864Z,61.71
2018-09-06T15:34:38.697Z,60.73
2018-09-06T15:37:06.423Z,59.61
2018-09-06T15:39:34.417Z,60.46
2018-09-06T15:42:02.227Z,60.04
2018-09-06T15:44:30.096Z,59.69
2018-09-06T15:46:57.773Z,59.23
2018-09-06T15:49:25.515Z,58.47
2018-09-06T15:51:53.360Z,59.11
2018-09-06T15:54:21.076Z,58.64
2018-09-06T15:56:48.917Z,58.76
2018-09-06T15:59:16.823Z,59.34
2018-09-06T16:01:44.850Z,58.95
2018-09-06T16:04:12.597Z,58.05
2018-09-06T16:06:40.359Z,57.94
2018-09-06T16:09:08.048Z,58.05
2018-09-06T16:11:35.801Z,58.72
2018-09-06T16:14:03.586Z,58.94
2018-09-06T16:16:31.367Z,59.40
2018-09-06T16:18:59.051Z,60.29
2018-09-06T16:21:26.703Z,61.63
2018-09-06T16:23:54.367Z,62.04
2018-09-06T16:26:22.065Z,63.06
2018-09-06T16:28:49.745Z,62.90
2018-09-06T16:31:17.479Z,62.86
2018-09-06T16:33:45.307Z,62.67
2018-09-06T16:36:13.191Z,63.02
2018-09-06T16:38:40.992Z,65.25
2018-09-06T16:41:08.691Z,64.69
2018-09-06T16:43:36.604Z,64.58
2018-09-06T16:46:04.263Z,67.29
2018-09-06T16:48:32.125Z,67.11
2018-09-06T16:50:59.899Z,66.99
2018-09-06T16:53:27.616Z,66.60
2018-09-06T16:55:55.827Z,65.99
2018-09-06T16:58:23.631Z,66.85
2018-09-06T17:00:51.528Z,68.62
2018-09-06T17:03:19.265Z,69.49
2018-09-06T17:05:47.012Z,69.81
2018-09-06T17:08:14.783Z,68.62
2018-09-06T17:10:42.464Z,69.66
2018-09-06T17:13:13.792Z,70.30
2018-09-06T17:15:41.509Z,69.18
2018-09-06T17:18:09.267Z,70.23
2018-09-06T17:20:36.991Z,71.06
2018-09-06T17:23:04.752Z,70.71
2018-09-06T17:28:07.232Z,71.65
2018-09-06T17:30:35.774Z,72.90
2018-09-06T17:33:03.543Z,73.50
2018-09-06T17:35:31.170Z,73.97
2018-09-06T17:37:58.838Z,73.28
2018-09-06T17:40:26.711Z,73.78
2018-09-06T17:42:54.568Z,74.62
2018-09-06T17:45:22.232Z,74.88
2018-09-06T17:47:50.167Z,75.88
2018-09-06T17:50:17.893Z,78.25
2018-09-06T17:52:45.664Z,77.17
2018-09-06T17:55:13.463Z,78.60
2018-09-06T17:57:41.169Z,78.37
2018-09-06T18:00:09.021Z,78.69
2018-09-06T18:02:36.748Z,77.52
2018-09-06T18:05:04.739Z,77.05
2018-09-06T18:07:32.439Z,77.27
2018-09-06T18:10:00.282Z,77.89
2018-09-06T18:12:28.100Z,74.42
2018-09-06T18:14:56.077Z,76.34
2018-09-06T18:17:24.547Z,78.22
2018-09-06T18:19:52.448Z,77.90
2018-09-06T18:22:20.297Z,78.19
2018-09-06T18:24:51.620Z,78.72
2018-09-06T18:27:19.356Z,78.04
2018-09-06T18:29:47.378Z,77.51
2018-09-06T18:32:15.100Z,78.78
2018-09-06T18:34:42.880Z,78.60
2018-09-06T18:37:10.782Z,78.42
2018-09-06T18:39:38.651Z,78.93
2018-09-06T18:42:06.377Z,79.53
2018-09-06T18:44:34.172Z,80.03
2018-09-06T18:47:02.339Z,78.69
2018-09-06T18:49:30.131Z,78.56
2018-09-06T18:51:57.945Z,79.57
2018-09-06T18:54:32.865Z,80.07
2018-09-06T18:57:00.843Z,79.32
2018-09-06T18:59:28.623Z,78.98
2018-09-06T19:01:56.386Z,79.13
2018-09-06T19:04:24.050Z,79.37
2018-09-06T19:06:52.012Z,78.99
2018-09-06T19:09:19.880Z,79.56
2018-09-06T19:11:47.811Z,79.98
2018-09-06T19:14:16.117Z,80.36
2018-09-06T19:16:43.984Z,79.79
2018-09-06T19:19:11.819Z,80.79
2018-09-06T19:21:39.647Z,81.41
2018-09-06T19:24:07.438Z,81.79
2018-09-06T19:26:35.240Z,81.27
2018-09-06T19:29:03.116Z,80.70
2018-09-06T19:31:30.901Z,80.58
2018-09-06T19:33:59.108Z,81.00
2018-09-06T19:36:26.919Z,81.37
2018-09-06T19:38:55.033Z,81.64
2018-09-06T19:41:22.751Z,82.18
2018-09-06T19:43:50.412Z,82.49
2018-09-06T19:46:18.164Z,81.90
2018-09-06T19:48:45.923Z,81.71
2018-09-06T19:51:13.588Z,81.53
2018-09-06T19:53:44.825Z,81.48
2018-09-06T19:56:12.587Z,81.55
2018-09-06T19:58:40.472Z,81.80
2018-09-06T20:01:08.234Z,80.88
2018-09-06T20:03:36.005Z,81.67
2018-09-06T20:06:03.901Z,81.41
2018-09-06T20:08:31.607Z,82.05
2018-09-06T20:10:59.351Z,82.44
2018-09-06T20:13:27.005Z,80.97
2018-09-06T20:15:55.062Z,81.22
2018-09-06T20:18:22.843Z,81.64
2018-09-06T20:20:50.710Z,81.02
2018-09-06T20:23:18.403Z,81.04
2018-09-06T20:25:47.179Z,81.17
2018-09-06T20:28:16.294Z,81.31
2018-09-06T20:30:43.893Z,81.48
2018-09-06T20:33:12.313Z,82.19
2018-09-06T20:35:40.264Z,81.85
2018-09-06T20:38:07.994Z,81.45
2018-09-06T20:40:36.769Z,82.08
2018-09-06T20:43:04.815Z,82.35
2018-09-06T20:45:32.543Z,81.34
2018-09-06T20:48:00.279Z,82.21
2018-09-06T20:50:28.643Z,82.22
2018-09-06T20:52:57.052Z,82.02
2018-09-06T20:55:24.855Z,82.09
2018-09-06T20:57:52.589Z,81.45
2018-09-06T21:00:20.322Z,83.15
2018-09-06T21:02:48.041Z,81.71
2018-09-06T21:05:16.040Z,81.96
2018-09-06T21:07:43.783Z,82.21
2018-09-06T21:10:11.484Z,82.09
2018-09-06T21:12:39.211Z,81.50
2018-09-06T21:15:06.963Z,82.45
2018-09-06T21:17:34.672Z,82.25
2018-09-06T21:20:02.925Z,83.16
2018-09-06T21:22:30.691Z,82.96
2018-09-06T21:24:58.540Z,82.99
2018-09-06T21:27:26.202Z,82.65
2018-09-06T21:29:53.955Z,82.08
2018-09-06T21:32:21.589Z,82.55
2018-09-06T21:34:49.299Z,82.53
2018-09-06T21:37:17.071Z,82.19
2018-09-06T21:39:44.783Z,82.90
2018-09-06T21:42:12.511Z,82.12
2018-09-06T21:44:40.187Z,81.66
2018-09-06T21:47:07.896Z,82.14
2018-09-06T21:49:36.483Z,81.81
2018-09-06T21:52:04.424Z,82.34
2018-09-06T21:54:32.144Z,82.12
2018-09-06T21:56:59.847Z,83.10
2018-09-06T21:59:27.647Z,83.07
2018-09-06T22:01:55.327Z,83.06
2018-09-06T22:04:23.006Z,82.91
2018-09-06T22:06:50.707Z,83.15
2018-09-06T22:09:18.390Z,83.08
2018-09-06T22:11:46.159Z,82.92
2018-09-06T22:14:13.878Z,82.66
2018-09-06T22:16:41.650Z,83.09
2018-09-06T22:19:09.373Z,83.18
2018-09-06T22:21:37.298Z,83.28
2018-09-06T22:24:05.063Z,82.93
2018-09-06T22:26:32.750Z,82.96
2018-09-06T22:29:00.427Z,83.08
2018-09-06T22:31:28.131Z,82.38
2018-09-06T22:33:55.824Z,83.10
2018-09-06T22:36:23.524Z,82.92
2018-09-06T22:38:51.219Z,82.82
2018-09-06T22:41:19.023Z,82.94
2018-09-06T22:43:46.906Z,83.18
2018-09-06T22:46:15.597Z,82.54
2018-09-06T22:48:43.414Z,82.34
2018-09-06T22:51:11.040Z,82.16
2018-09-06T22:53:38.763Z,82.74
2018-09-06T22:56:06.463Z,82.39
2018-09-06T22:58:34.238Z,82.20
2018-09-06T23:01:01.925Z,82.12
2018-09-06T23:03:35.351Z,82.06
2018-09-06T23:06:03.048Z,82.09
2018-09-06T23:08:30.800Z,83.00
2018-09-06T23:10:58.499Z,83.32
2018-09-06T23:13:26.211Z,82.51
2018-09-06T23:15:53.900Z,83.18
2018-09-06T23:18:21.621Z,82.95
2018-09-06T23:20:49.497Z,82.38
2018-09-06T23:23:17.697Z,82.59
2018-09-06T23:25:45.432Z,82.54
2018-09-06T23:28:13.155Z,83.10
2018-09-06T23:30:41.409Z,82.39
2018-09-06T23:33:09.171Z,82.48
2018-09-06T23:35:36.879Z,82.16
2018-09-06T23:38:04.667Z,82.92
2018-09-06T23:40:36.938Z,83.05
2018-09-06T23:43:04.639Z,82.75
2018-09-06T23:45:32.347Z,82.68
2018-09-06T23:48:00.059Z,83.02
2018-09-06T23:50:27.815Z,82.22
2018-09-06T23:52:55.592Z,82.93
2018-09-06T23:55:23.263Z,82.65
2018-09-06T23:57:51.187Z,82.90
